Terminal Aerodrome Forecast
Issued by NWS

Home | Current Version | Previous Version | Text Only | Print | Product List | Glossary Off
Versions: 1 2 3 4 5 6 7 8 9 10 11 12 13 14 15 16 17 18 19 20 21 22 23 24 25 26 27

638
FTUS45 KGGW 282259 AAB
TAFGDV
TAF AMD
KGDV 282259Z 2823/2918 31010KT P6SM -TSRA BKN070CB
     FM290100 13008KT P6SM VCTS SCT070CB BKN100
     FM290300 12010KT P6SM SCT120
     FM291500 30015KT P6SM SCT150=

USA.gov is the U.S. government's official web portal to all federal, state and local government web resources and services.